Time;durP1;ratioP1;P1;durP2;ratioP2;P2;SDS_P1;SDS_P2;PMS_P1;PMS_P2;Temp;Humidity;BMP_temperature;BMP_pressure;BME280_temperature;BME280_humidity;BME280_pressure;Samples;Min_cycle;Max_cycle;Signal;HPM_P1;HPM_P2
2022/08/04 00:00:02;;;;;;;6.03;3.50;;;;;;;19.91;91.72;99476.85;1724414;83;21507;-79
2022/08/04 00:02:52;;;;;;;5.03;3.83;;;;;;;19.90;91.88;99480.48;1729969;81;21130;-79
2022/08/04 00:05:42;;;;;;;4.22;3.92;;;;;;;19.89;91.74;99473.45;1737913;81;21149;-79
2022/08/04 00:08:40;;;;;;;7.08;3.55;;;;;;;19.88;91.70;99475.73;1739694;81;21114;-81
2022/08/04 00:11:09;;;;;;;4.08;3.77;;;;;;;19.88;91.61;99475.73;1737121;81;21035;-78
2022/08/04 00:13:38;;;;;;;4.70;4.30;;;;;;;19.86;91.65;99470.52;1739885;81;21060;-79
2022/08/04 00:16:07;;;;;;;4.25;3.80;;;;;;;19.83;91.78;99479.23;1739429;81;21076;-80
2022/08/04 00:18:46;;;;;;;6.20;3.85;;;;;;;19.79;91.96;99479.95;1728728;82;21157;-80
2022/08/04 00:21:15;;;;;;;5.15;3.77;;;;;;;19.77;92.04;99481.01;1737902;81;21055;-80
2022/08/04 00:23:43;;;;;;;3.90;3.70;;;;;;;19.79;92.00;99485.78;1737734;81;21111;-79
2022/08/04 00:26:09;;;;;;;4.40;4.10;;;;;;;19.80;92.02;99481.66;1735416;81;21079;-80
2022/08/04 00:28:41;;;;;;;4.42;3.98;;;;;;;19.79;91.90;99481.77;1738825;81;21066;-80
2022/08/04 00:31:09;;;;;;;5.28;3.98;;;;;;;19.77;91.77;99485.02;1730096;82;21524;-80
2022/08/04 00:33:37;;;;;;;4.33;3.92;;;;;;;19.76;91.79;99479.33;1735677;81;21098;-79
2022/08/04 00:36:04;;;;;;;5.75;4.00;;;;;;;19.72;91.70;99480.47;1730666;82;21063;-81
2022/08/04 00:38:30;;;;;;;4.50;4.10;;;;;;;19.67;91.71;99483.00;1729739;82;21096;-80
2022/08/04 00:41:21;;;;;;;5.87;3.77;;;;;;;19.66;91.77;99485.28;1730169;82;21010;-80
2022/08/04 00:44:28;;;;;;;4.90;4.15;;;;;;;19.68;91.69;99488.69;1720455;82;21703;-79
2022/08/04 00:47:22;;;;;;;5.75;4.17;;;;;;;19.71;91.63;99484.12;1718148;83;21042;-81
2022/08/04 00:50:03;;;;;;;6.42;4.33;;;;;;;19.73;91.64;99490.19;1717791;83;21052;-80
2022/08/04 00:52:44;;;;;;;8.93;4.10;;;;;;;19.73;91.66;99485.69;1717739;83;21060;-79
2022/08/04 00:55:22;;;;;;;4.40;4.08;;;;;;;19.74;91.65;99485.23;1717995;83;21082;-79
2022/08/04 00:58:24;;;;;;;6.62;3.92;;;;;;;19.73;91.69;99486.19;1683054;83;21131;-79
2022/08/04 01:01:05;;;;;;;5.87;4.78;;;;;;;19.70;91.79;99496.59;1717902;83;21058;-79
2022/08/04 01:04:12;;;;;;;6.58;5.00;;;;;;;19.69;91.81;99490.90;1719330;81;21640;-80
2022/08/04 01:07:07;;;;;;;6.45;4.62;;;;;;;19.68;91.99;99492.70;1720018;83;21047;-80
2022/08/04 01:10:11;;;;;;;5.00;4.58;;;;;;;19.65;92.02;99496.08;1720362;83;21008;-78
2022/08/04 01:12:55;;;;;;;5.95;5.12;;;;;;;19.64;92.09;99497.91;1718303;81;22115;-79
2022/08/04 01:15:54;;;;;;;7.97;5.10;;;;;;;19.64;92.30;99501.91;1720023;83;21070;-81
2022/08/04 01:18:28;;;;;;;7.42;5.40;;;;;;;19.65;92.41;99502.75;1720024;81;21046;-80
2022/08/04 01:21:30;;;;;;;6.73;5.40;;;;;;;19.62;92.49;99504.33;1715002;83;21078;-80
2022/08/04 01:24:31;;;;;;;6.47;5.85;;;;;;;19.60;92.70;99503.11;1720363;81;21213;-79
2022/08/04 01:27:13;;;;;;;6.65;5.83;;;;;;;19.58;93.10;99505.00;1711438;83;21131;-79
2022/08/04 01:29:48;;;;;;;7.45;6.75;;;;;;;19.56;93.24;99504.77;1672612;83;21146;-80
2022/08/04 01:32:24;;;;;;;9.50;6.50;;;;;;;19.54;93.60;99504.87;1715708;83;20999;-80
2022/08/04 01:35:12;;;;;;;7.17;6.47;;;;;;;19.50;93.83;99506.03;1715140;83;21090;-80
2022/08/04 01:38:08;;;;;;;7.08;5.87;;;;;;;19.49;94.00;99508.36;1715545;83;21130;-80
2022/08/04 01:40:34;;;;;;;10.25;6.17;;;;;;;19.51;93.98;99508.25;1715402;83;21126;-81
2022/08/04 01:43:01;;;;;;;7.47;6.47;;;;;;;19.53;94.01;99512.49;1715320;83;21107;-81
2022/08/04 01:45:27;;;;;;;7.22;6.45;;;;;;;19.55;93.95;99509.26;1715199;83;21040;-80
2022/08/04 01:47:54;;;;;;;7.92;6.55;;;;;;;19.57;93.96;99516.66;1715590;83;21518;-80
2022/08/04 01:50:22;;;;;;;8.45;6.33;;;;;;;19.60;93.90;99512.45;1715345;83;22258;-80
2022/08/04 01:52:51;;;;;;;8.98;6.60;;;;;;;19.62;93.96;99510.52;1715247;83;21764;-81
2022/08/04 01:55:18;;;;;;;7.55;6.42;;;;;;;19.63;93.76;99504.68;1683529;83;21094;-80
2022/08/04 01:57:47;;;;;;;8.45;6.65;;;;;;;19.62;93.72;99507.84;1715630;83;21007;-80
2022/08/04 02:00:18;;;;;;;11.20;6.85;;;;;;;19.60;93.94;99507.11;1715528;83;21071;-80
2022/08/04 02:02:45;;;;;;;8.28;7.28;;;;;;;19.58;94.07;99501.49;1712651;83;21595;-81
2022/08/04 02:05:15;;;;;;;8.33;6.80;;;;;;;19.56;94.19;99500.27;1705504;84;21234;-80
2022/08/04 02:08:09;;;;;;;9.35;7.28;;;;;;;19.57;94.40;99501.98;1705716;84;21015;-81
2022/08/04 02:10:44;;;;;;;7.08;6.37;;;;;;;19.53;94.65;99497.81;1705512;84;21020;-80
2022/08/04 02:13:50;;;;;;;8.35;6.70;;;;;;;19.48;94.97;99494.62;1705397;84;21083;-81
2022/08/04 02:16:25;;;;;;;;;;;;;;;19.48;95.04;99497.30;1708099;84;21032;-80
2022/08/04 02:19:21;;;;;;;;;;;;;;;19.49;95.30;99499.02;1708215;84;21121;-80
2022/08/04 02:21:50;;;;;;;9.03;7.78;;;;;;;19.47;95.38;99498.28;1705394;84;20232;-81
2022/08/04 02:24:18;;;;;;;9.30;7.47;;;;;;;19.47;95.46;99495.61;1705433;84;21578;-81
2022/08/04 02:26:47;;;;;;;9.93;7.03;;;;;;;19.49;95.43;99497.68;1705479;84;21559;-80
2022/08/04 02:29:23;;;;;;;14.07;7.33;;;;;;;19.49;95.40;99496.34;1705479;84;21144;-80
2022/08/04 02:32:05;;;;;;;7.75;7.05;;;;;;;19.51;95.30;99501.58;1704859;84;22318;-80
2022/08/04 02:34:49;;;;;;;8.78;7.87;;;;;;;19.54;95.00;99503.53;1705254;84;21087;-81
2022/08/04 02:37:16;;;;;;;9.65;7.53;;;;;;;19.57;95.03;99501.11;1704491;84;21020;-80
2022/08/04 02:39:43;;;;;;;9.58;7.00;;;;;;;19.56;95.03;99500.27;1705403;84;21202;-81
2022/08/04 02:42:11;;;;;;;8.53;7.40;;;;;;;19.56;95.06;99496.27;1705448;84;21150;-80
2022/08/04 02:44:39;;;;;;;11.70;7.67;;;;;;;19.58;95.01;99500.16;1705350;84;21159;-81
2022/08/04 02:47:06;;;;;;;9.73;7.65;;;;;;;19.58;95.04;99497.00;1705441;84;21055;-80
2022/08/04 02:49:37;;;;;;;9.90;8.08;;;;;;;19.60;95.01;99500.89;1705546;84;21008;-80
2022/08/04 02:52:04;;;;;;;11.15;7.22;;;;;;;19.60;95.15;99496.43;1705584;84;21091;-81
2022/08/04 02:54:34;;;;;;;8.35;7.08;;;;;;;19.59;95.18;99496.05;1715557;82;21083;-81
2022/08/04 02:57:01;;;;;;;12.43;7.67;;;;;;;19.57;95.21;99496.65;1713356;83;21134;-79
2022/08/04 02:59:29;;;;;;;12.45;7.90;;;;;;;19.57;95.04;99493.98;1713222;83;20961;-80
2022/08/04 03:01:56;;;;;;;10.95;7.95;;;;;;;19.59;95.00;99492.05;1713761;83;21083;-80
2022/08/04 03:04:43;;;;;;;9.70;7.95;;;;;;;19.59;95.10;99488.04;1696804;83;21095;-80
2022/08/04 03:07:20;;;;;;;8.28;7.22;;;;;;;19.56;95.23;99489.59;1692326;83;21655;-80
2022/08/04 03:10:38;;;;;;;10.82;7.70;;;;;;;19.53;95.38;99489.81;1693659;83;21561;-80
2022/08/04 03:13:36;;;;;;;9.60;7.87;;;;;;;19.53;95.49;99488.97;1692095;83;21085;-81
2022/08/04 03:16:20;;;;;;;8.63;7.87;;;;;;;19.52;95.43;99488.58;1687075;84;21071;-80
2022/08/04 03:19:03;;;;;;;8.90;7.85;;;;;;;19.53;95.34;99488.48;1691797;83;21112;-80
2022/08/04 03:22:18;;;;;;;8.83;7.87;;;;;;;19.52;95.40;99490.80;1678417;84;21048;-77
2022/08/04 03:25:11;;;;;;;10.25;7.85;;;;;;;19.52;95.53;99490.80;1686005;85;21134;-81
2022/08/04 03:28:04;;;;;;;9.23;7.83;;;;;;;19.49;95.69;99489.67;1664975;84;21078;-81
2022/08/04 03:30:46;;;;;;;10.63;8.10;;;;;;;19.52;95.74;99486.79;1688098;84;21592;-79
2022/08/04 03:33:27;;;;;;;14.20;9.10;;;;;;;19.54;95.87;99482.19;1693469;83;21081;-79
2022/08/04 03:36:31;;;;;;;10.98;9.28;;;;;;;19.53;96.03;99486.30;1693375;83;20995;-81
2022/08/04 03:39:38;;;;;;;10.60;9.40;;;;;;;19.53;96.19;99487.63;1688095;85;21142;-81
2022/08/04 03:42:38;;;;;;;12.78;9.35;;;;;;;19.54;96.37;99486.19;1693281;83;21055;-79
2022/08/04 03:45:33;;;;;;;14.07;9.68;;;;;;;19.53;96.46;99492.48;1688368;84;21153;-79
2022/08/04 03:48:34;;;;;;;14.23;9.70;;;;;;;19.55;96.58;99488.37;1694267;82;21546;-80
2022/08/04 03:54:33;;;;;;;13.88;9.65;;;;;;;19.53;96.74;99492.48;1626844;86;21158;-80
2022/08/04 03:57:57;;;;;;;10.13;9.13;;;;;;;19.53;96.77;99491.14;1693447;83;21106;-80
2022/08/04 04:00:46;;;;;;;14.03;8.68;;;;;;;19.51;96.77;99489.08;1693227;84;21003;-80
2022/08/04 04:03:45;;;;;;;13.45;9.28;;;;;;;19.52;96.90;99506.80;1697924;81;21588;-81
2022/08/04 04:06:50;;;;;;;12.10;9.08;;;;;;;19.52;97.07;99508.59;1730414;82;22198;-81
2022/08/04 04:09:43;;;;;;;13.90;8.63;;;;;;;19.50;97.10;99511.38;1731348;82;21231;-80
2022/08/04 04:12:21;;;;;;;10.53;9.23;;;;;;;19.51;97.24;99509.58;1730522;82;21405;-81
2022/08/04 04:15:23;;;;;;;12.58;8.68;;;;;;;19.54;97.35;99512.87;1730681;82;20985;-80
2022/08/04 04:18:28;;;;;;;13.60;9.45;;;;;;;19.57;97.25;99511.33;1730692;82;21110;-80
2022/08/04 04:21:17;;;;;;;12.07;9.13;;;;;;;19.64;97.13;99513.91;1715869;82;21041;-82
2022/08/04 04:24:25;;;;;;;17.60;8.78;;;;;;;19.68;97.07;99505.20;1730214;82;21283;-80
2022/08/04 04:27:23;;;;;;;11.10;8.73;;;;;;;19.73;96.87;99515.55;1730579;82;21064;-81
2022/08/04 04:30:38;;;;;;;10.78;8.60;;;;;;;19.81;96.71;99519.88;1730007;82;21582;-80
2022/08/04 04:33:28;;;;;;;16.60;9.10;;;;;;;19.87;96.62;99519.45;1675593;84;21083;-81
2022/08/04 04:36:31;;;;;;;9.90;8.78;;;;;;;19.93;96.46;99513.63;1725435;82;21001;-80
2022/08/04 04:39:03;;;;;;;13.18;9.18;;;;;;;19.98;96.28;99511.48;1730320;82;21717;-80
2022/08/04 04:41:59;;;;;;;10.90;9.20;;;;;;;20.02;96.11;99515.64;1730916;82;21060;-80
2022/08/04 04:45:14;;;;;;;11.80;9.45;;;;;;;20.05;95.78;99511.88;1730723;82;21008;-81
2022/08/04 04:47:59;;;;;;;10.60;9.10;;;;;;;20.10;95.52;99514.21;1730858;82;21135;-81
2022/08/04 04:50:37;;;;;;;13.05;8.55;;;;;;;20.14;95.23;99517.02;1727894;82;21071;-81
2022/08/04 04:53:40;;;;;;;12.07;9.30;;;;;;;20.16;95.06;99515.10;1727423;82;21080;-79
2022/08/04 04:56:30;;;;;;;12.88;9.08;;;;;;;20.18;94.80;99517.17;1705721;83;21046;-80
2022/08/04 04:58:57;;;;;;;10.58;9.10;;;;;;;20.18;94.63;99510.00;1718605;83;21068;-81
2022/08/04 05:01:41;;;;;;;10.75;9.70;;;;;;;20.21;94.42;99512.94;1705681;84;21145;-80
2022/08/04 05:04:48;;;;;;;11.43;9.38;;;;;;;20.22;94.24;99518.63;1675870;84;21063;-81
2022/08/04 05:07:26;;;;;;;12.43;9.05;;;;;;;20.20;94.14;99516.56;1713469;83;21716;-81
2022/08/04 05:10:14;;;;;;;15.32;9.83;;;;;;;20.24;94.24;99518.06;1712663;83;21138;-81
2022/08/04 05:13:15;;;;;;;10.68;9.55;;;;;;;20.27;94.13;99517.80;1703579;83;21054;-81
2022/08/04 05:15:43;;;;;;;11.75;9.85;;;;;;;20.29;94.06;99519.02;1715435;82;21067;-81
2022/08/04 05:18:14;;;;;;;12.00;10.08;;;;;;;20.30;93.98;99522.92;1714660;83;21058;-80
2022/08/04 05:20:44;;;;;;;16.70;10.35;;;;;;;20.32;93.90;99527.66;1714313;83;21874;-81
2022/08/04 05:23:15;;;;;;;12.85;10.55;;;;;;;20.34;93.69;99528.42;1714241;83;21115;-81
2022/08/04 05:25:57;;;;;;;11.22;9.88;;;;;;;20.32;93.65;99524.14;1714424;83;21115;-79
2022/08/04 05:28:43;;;;;;;12.15;9.88;;;;;;;20.34;93.58;99524.41;1714262;83;21744;-80
2022/08/04 05:31:26;;;;;;;13.03;10.50;;;;;;;20.38;93.69;99520.53;1704049;83;21134;-80
2022/08/04 05:34:02;;;;;;;12.07;9.65;;;;;;;20.47;93.68;99528.82;1710995;83;21072;-78
2022/08/04 05:36:45;;;;;;;15.28;10.20;;;;;;;20.53;93.68;99529.70;1702820;83;21063;-80
2022/08/04 05:39:19;;;;;;;10.88;9.73;;;;;;;20.57;93.36;99536.51;1700952;83;21071;-82
2022/08/04 05:41:45;;;;;;;11.80;10.53;;;;;;;20.58;93.38;99539.06;1714847;83;21024;-80
2022/08/04 05:44:14;;;;;;;11.00;9.85;;;;;;;20.62;93.17;99533.00;1714377;83;21061;-81
2022/08/04 05:46:41;;;;;;;12.65;9.43;;;;;;;20.64;92.69;99540.44;1714349;83;21752;-82
2022/08/04 05:49:07;;;;;;;19.07;10.53;;;;;;;20.66;92.48;99545.67;1714223;83;21103;-81
2022/08/04 05:51:34;;;;;;;11.50;9.90;;;;;;;20.68;92.27;99545.94;1714215;83;22111;-80
2022/08/04 05:54:00;;;;;;;11.80;9.98;;;;;;;20.68;92.15;99552.63;1714508;83;21135;-81
2022/08/04 05:56:27;;;;;;;13.68;10.45;;;;;;;20.72;92.03;99553.23;1714507;83;21037;-80
2022/08/04 05:58:54;;;;;;;15.20;11.10;;;;;;;20.73;91.71;99553.13;1714240;83;21512;-80
2022/08/04 06:01:20;;;;;;;17.65;11.88;;;;;;;20.71;91.46;99549.72;1714134;83;21024;-79
2022/08/04 06:03:47;;;;;;;14.25;10.95;;;;;;;20.67;91.26;99550.91;1714568;82;21071;-81
2022/08/04 06:06:14;;;;;;;13.05;9.60;;;;;;;20.64;91.34;99557.81;1714442;83;21143;-81
2022/08/04 06:08:40;;;;;;;13.62;10.13;;;;;;;20.62;91.28;99554.38;1714247;83;21571;-80
2022/08/04 06:11:08;;;;;;;13.75;10.13;;;;;;;20.59;91.38;99554.61;1714255;83;21479;-80
2022/08/04 06:13:55;;;;;;;11.03;9.93;;;;;;;20.57;91.45;99549.88;1714391;83;21606;-81
2022/08/04 06:16:25;;;;;;;13.53;10.28;;;;;;;20.59;91.60;99553.27;1714844;83;21036;-80
2022/08/04 06:18:53;;;;;;;13.88;9.60;;;;;;;20.60;91.57;99553.16;1714216;83;21048;-80
2022/08/04 06:21:21;;;;;;;13.08;9.65;;;;;;;20.64;91.53;99553.80;1715676;83;21134;-81
2022/08/04 06:23:49;;;;;;;11.10;9.88;;;;;;;20.69;91.39;99554.31;1714499;83;21804;-79
2022/08/04 06:26:18;;;;;;;13.25;10.45;;;;;;;20.74;91.27;99557.48;1714461;83;21521;-81
2022/08/04 06:28:49;;;;;;;11.25;9.28;;;;;;;20.81;91.11;99547.66;1714672;83;20988;-81
2022/08/04 06:34:02;;;;;;;12.05;8.85;;;;;;;21.00;91.02;99549.77;1714791;83;21130;-80
2022/08/04 06:36:30;;;;;;;10.98;9.05;;;;;;;21.13;90.89;99550.05;1714521;83;21119;-80
2022/08/04 06:38:58;;;;;;;13.35;9.38;;;;;;;21.24;90.65;99551.87;1714074;83;22209;-81
2022/08/04 06:41:27;;;;;;;11.48;9.53;;;;;;;21.40;90.28;99547.52;1714550;83;21099;-80
2022/08/04 06:43:56;;;;;;;14.90;10.05;;;;;;;21.55;89.60;99548.63;1714224;83;21010;-79
2022/08/04 06:46:22;;;;;;;12.55;9.88;;;;;;;21.64;88.81;99547.90;1726571;82;21507;-80
2022/08/04 06:48:49;;;;;;;10.88;9.33;;;;;;;21.71;88.88;99543.75;1714528;83;21273;-80
2022/08/04 06:51:15;;;;;;;11.65;9.30;;;;;;;21.79;87.91;99541.30;1714579;83;21127;-82
2022/08/04 06:53:43;;;;;;;10.75;9.53;;;;;;;21.84;87.58;99541.78;1723116;82;21054;-81
2022/08/04 06:56:09;;;;;;;11.33;9.88;;;;;;;21.91;87.20;99539.95;1731039;82;21069;-82
2022/08/04 06:58:35;;;;;;;19.48;10.15;;;;;;;21.95;86.65;99540.05;1730721;82;21517;-81
2022/08/04 07:01:02;;;;;;;15.10;9.50;;;;;;;21.96;86.34;99537.75;1731001;82;21199;-81
2022/08/04 07:03:29;;;;;;;13.10;9.75;;;;;;;21.99;86.50;99541.48;1730761;82;21039;-80
2022/08/04 07:05:56;;;;;;;10.55;9.18;;;;;;;22.01;85.60;99537.72;1687816;82;21132;-81
2022/08/04 07:08:23;;;;;;;11.43;9.95;;;;;;;22.00;85.61;99546.72;1734975;82;21143;-82
2022/08/04 07:10:49;;;;;;;18.67;10.95;;;;;;;22.03;85.73;99545.63;1734153;82;21100;-80
2022/08/04 07:13:17;;;;;;;12.10;9.23;;;;;;;22.02;85.05;99547.47;1734775;80;21101;-79
2022/08/04 07:15:44;;;;;;;12.90;9.68;;;;;;;21.99;85.00;99547.72;1734623;82;21014;-80
2022/08/04 07:18:11;;;;;;;10.90;9.18;;;;;;;21.99;85.22;99545.50;1734757;82;21127;-81
2022/08/04 07:20:42;;;;;;;12.40;9.73;;;;;;;21.99;85.15;99541.48;1729433;81;21126;-81
2022/08/04 07:23:10;;;;;;;12.55;9.58;;;;;;;22.00;85.43;99540.52;1726971;83;20985;-80
2022/08/04 07:25:37;;;;;;;10.08;9.05;;;;;;;22.06;85.55;99541.37;1728357;81;21102;-81
2022/08/04 07:28:04;;;;;;;13.30;9.35;;;;;;;22.18;85.56;99538.17;1726731;81;21112;-82
2022/08/04 07:30:31;;;;;;;11.70;9.85;;;;;;;22.29;85.56;99534.62;1727050;83;21615;-82
2022/08/04 07:32:59;;;;;;;14.55;9.40;;;;;;;22.42;85.29;99542.00;1726830;83;47298;-80
2022/08/04 07:35:27;;;;;;;12.47;9.45;;;;;;;22.52;84.44;99537.56;1726849;83;21037;-81
2022/08/04 07:37:53;;;;;;;11.35;9.33;;;;;;;22.56;83.21;99539.02;1726825;81;21100;-81
2022/08/04 07:40:20;;;;;;;12.80;9.40;;;;;;;22.60;82.59;99535.08;1726842;83;21002;-80
2022/08/04 07:42:46;;;;;;;12.78;9.90;;;;;;;22.64;82.63;99537.02;1726853;83;21065;-81
2022/08/04 07:45:12;;;;;;;10.40;9.30;;;;;;;22.67;82.37;99535.42;1726652;83;21674;-82
2022/08/04 07:47:39;;;;;;;11.05;9.48;;;;;;;22.74;82.34;99535.25;1727089;83;21638;-82
2022/08/04 07:50:11;;;;;;;10.60;9.60;;;;;;;22.80;81.72;99539.26;1728139;83;21122;-79
2022/08/04 07:52:39;;;;;;;15.15;9.93;;;;;;;22.85;81.47;99542.40;1726881;83;21083;-80
2022/08/04 07:55:05;;;;;;;12.73;9.48;;;;;;;22.86;81.74;99542.73;1726775;83;21133;-81
2022/08/04 07:57:32;;;;;;;14.58;8.83;;;;;;;22.91;81.55;99543.19;1726957;83;21220;-81
2022/08/04 07:59:59;;;;;;;12.73;9.28;;;;;;;22.97;81.66;99535.13;1727196;81;21052;-80
2022/08/04 08:02:25;;;;;;;12.23;9.78;;;;;;;23.07;81.53;99539.25;1726822;83;21160;-80
2022/08/04 08:04:52;;;;;;;17.40;10.43;;;;;;;23.12;80.47;99537.02;1726595;81;21008;-80
2022/08/04 08:07:19;;;;;;;13.32;9.63;;;;;;;23.13;79.66;99540.91;1726716;83;21488;-80
2022/08/04 08:09:47;;;;;;;15.32;10.10;;;;;;;23.12;79.46;99539.20;1726645;83;21076;-80
2022/08/04 08:12:15;;;;;;;13.95;9.78;;;;;;;23.12;79.16;99537.02;1727040;81;21091;-81
2022/08/04 08:14:42;;;;;;;12.58;9.85;;;;;;;23.14;79.13;99541.25;1726893;81;21069;-81
2022/08/04 08:17:08;;;;;;;13.05;9.28;;;;;;;23.19;78.96;99543.04;1726960;83;21104;-79
2022/08/04 08:19:35;;;;;;;16.67;11.22;;;;;;;23.22;78.81;99547.30;1726712;83;21572;-81
2022/08/04 08:22:01;;;;;;;17.60;13.40;;;;;;;23.27;79.41;99545.06;1726518;83;21081;-80
2022/08/04 08:24:29;;;;;;;17.15;9.50;;;;;;;23.35;79.03;99544.37;1726760;83;21083;-82
2022/08/04 08:26:56;;;;;;;10.75;8.75;;;;;;;23.42;78.17;99544.69;1726830;83;21849;-82
2022/08/04 08:29:24;;;;;;;19.35;12.05;;;;;;;23.47;77.63;99543.80;1726833;81;21528;-81
2022/08/04 08:31:51;;;;;;;11.90;9.53;;;;;;;23.54;78.04;99543.63;1726720;83;21060;-79
2022/08/04 08:34:17;;;;;;;13.22;9.03;;;;;;;23.61;78.48;99540.75;1727029;83;21020;-82
2022/08/04 08:36:50;;;;;;;12.93;8.50;;;;;;;23.69;77.58;99537.39;1726994;81;21611;-80
2022/08/04 08:39:37;;;;;;;14.58;7.50;;;;;;;23.77;77.30;99544.75;1726612;81;21607;-79
2022/08/04 08:42:23;;;;;;;9.90;8.90;;;;;;;23.79;76.72;99536.92;1691694;83;21187;-80
2022/08/04 08:45:07;;;;;;;17.60;11.03;;;;;;;23.86;76.86;99537.26;1705783;83;21077;-82
2022/08/04 08:48:21;;;;;;;16.13;10.83;;;;;;;23.92;76.56;99536.69;1726966;83;21009;-80
2022/08/04 08:50:56;;;;;;;12.78;8.30;;;;;;;23.99;76.49;99540.54;1726519;81;21769;-80
2022/08/04 08:53:44;;;;;;;;;;;;;;;24.09;76.02;99540.53;1729712;81;21547;-81
2022/08/04 08:56:31;;;;;;;10.05;7.97;;;;;;;24.11;75.46;99542.10;1726484;83;20235;-80
2022/08/04 08:59:47;;;;;;;10.13;7.08;;;;;;;24.08;73.90;99545.06;1726969;83;21022;-79
2022/08/04 09:02:52;;;;;;;10.30;7.90;;;;;;;24.02;74.07;99548.30;1727477;82;21523;-80
2022/08/04 09:05:42;;;;;;;;;;;;;;;24.04;73.97;99549.03;1707745;83;21099;-81
2022/08/04 09:08:39;;;;;;;15.80;8.53;;;;;;;24.07;73.87;99540.70;1702970;84;21130;-80
2022/08/04 09:11:17;;;;;;;10.32;7.22;;;;;;;24.14;73.78;99542.81;1706555;83;21034;-79
2022/08/04 09:13:54;;;;;;;10.30;7.47;;;;;;;24.30;74.00;99539.08;1704106;83;21085;-80
2022/08/04 09:16:25;;;;;;;12.53;7.00;;;;;;;24.41;72.86;99542.11;1706543;83;21090;-80
2022/08/04 09:19:16;;;;;;;12.33;8.05;;;;;;;24.45;72.15;99540.86;1706520;83;21501;-79
2022/08/04 09:22:18;;;;;;;13.25;7.85;;;;;;;24.48;71.85;99540.58;1706836;83;21110;-80
2022/08/04 09:25:08;;;;;;;10.05;7.35;;;;;;;24.54;71.12;99539.98;1690012;83;21149;-81
2022/08/04 09:27:51;;;;;;;13.80;7.47;;;;;;;24.61;70.73;99538.95;1699810;83;21144;-82
2022/08/04 09:30:20;;;;;;;9.00;8.03;;;;;;;24.73;70.84;99535.14;1711680;83;21062;-80
2022/08/04 09:33:16;;;;;;;12.13;7.95;;;;;;;24.85;68.77;99535.33;1721518;83;21173;-80
2022/08/04 09:36:07;;;;;;;14.33;7.42;;;;;;;24.84;68.16;99539.00;1722769;83;21122;-80
2022/08/04 09:39:08;;;;;;;11.18;7.40;;;;;;;24.84;69.54;99541.69;1723000;83;21560;-81
2022/08/04 09:41:49;;;;;;;6.97;6.37;;;;;;;24.88;68.60;99538.71;1716333;83;21533;-80
2022/08/04 09:45:03;;;;;;;9.60;6.70;;;;;;;24.94;68.69;99538.98;1723293;83;21235;-81
2022/08/04 09:47:54;;;;;;;8.73;6.97;;;;;;;25.08;69.31;99540.36;1723112;83;21112;-80
2022/08/04 09:50:35;;;;;;;7.25;6.65;;;;;;;25.28;68.40;99548.42;1722797;83;21141;-80
2022/08/04 09:53:31;;;;;;;10.35;7.08;;;;;;;25.46;69.29;99545.30;1719884;83;21584;-80
2022/08/04 09:56:06;;;;;;;13.48;7.22;;;;;;;25.66;69.41;99539.33;1719111;83;21221;-80
2022/08/04 09:58:42;;;;;;;9.73;7.17;;;;;;;25.82;67.97;99537.31;1722167;83;21117;-80
2022/08/04 10:01:11;;;;;;;7.10;6.33;;;;;;;25.94;67.58;99537.47;1722973;83;21525;-80
2022/08/04 10:03:44;;;;;;;9.05;6.53;;;;;;;26.13;67.41;99532.98;1723219;83;21088;-80
2022/08/04 10:06:37;;;;;;;7.97;6.03;;;;;;;26.31;67.53;99528.45;1721485;81;21546;-80
2022/08/04 10:09:31;;;;;;;7.67;6.67;;;;;;;26.51;67.59;99526.44;1720647;82;21028;-80
2022/08/04 10:12:16;;;;;;;11.65;6.55;;;;;;;26.69;65.59;99531.81;1720207;82;21079;-81
2022/08/04 10:14:56;;;;;;;10.43;6.75;;;;;;;26.82;64.55;99526.53;1719696;82;21028;-80
2022/08/04 10:17:34;;;;;;;7.28;6.58;;;;;;;26.84;63.96;99525.35;1718208;83;22138;-80
2022/08/04 10:20:29;;;;;;;9.53;6.22;;;;;;;26.83;64.13;99525.02;1720285;82;21109;-81
2022/08/04 10:23:16;;;;;;;8.85;6.25;;;;;;;26.77;64.03;99526.16;1720027;82;21146;-82
2022/08/04 10:26:06;;;;;;;9.83;6.40;;;;;;;26.75;64.80;99521.39;1719848;82;21698;-80
2022/08/04 10:28:38;;;;;;;9.65;6.85;;;;;;;26.76;64.45;99525.80;1719963;82;21126;-82
2022/08/04 10:31:08;;;;;;;7.83;6.35;;;;;;;26.75;63.47;99525.45;1720252;82;21931;-81
2022/08/04 10:33:54;;;;;;;7.28;6.20;;;;;;;26.71;62.28;99521.37;1719784;83;21007;-80
2022/08/04 10:36:23;;;;;;;7.65;6.20;;;;;;;26.71;62.36;99517.33;1720421;82;21043;-81
2022/08/04 10:38:55;;;;;;;6.35;5.55;;;;;;;26.83;63.92;99520.11;1720025;82;21019;-79
2022/08/04 10:41:50;;;;;;;6.10;5.60;;;;;;;26.97;62.18;99517.36;1720299;82;22227;-80
2022/08/04 10:44:37;;;;;;;10.10;6.17;;;;;;;27.06;61.83;99516.39;1719982;82;21167;-81
2022/08/04 10:47:11;;;;;;;8.40;6.00;;;;;;;27.10;61.66;99519.61;1719027;82;21122;-82
2022/08/04 10:49:57;;;;;;;7.47;5.78;;;;;;;27.12;62.02;99512.19;1720024;83;21553;-81
2022/08/04 10:52:37;;;;;;;5.83;5.33;;;;;;;27.12;60.89;99513.54;1720120;82;21082;-80
2022/08/04 10:55:17;;;;;;;6.35;5.50;;;;;;;26.98;61.15;99508.23;1719959;83;21043;-80
2022/08/04 10:57:51;;;;;;;9.80;5.58;;;;;;;26.82;60.94;99504.94;1719894;83;21859;-81
2022/08/04 11:00:27;;;;;;;11.22;5.83;;;;;;;26.67;61.30;99504.14;1719154;83;21098;-79
2022/08/04 11:03:14;;;;;;;6.45;5.78;;;;;;;26.59;62.77;99501.86;1732776;82;21073;-81
2022/08/04 11:05:54;;;;;;;9.18;6.08;;;;;;;26.62;61.92;99500.20;1735718;81;21122;-81
2022/08/04 11:08:36;;;;;;;10.05;6.22;;;;;;;26.68;63.08;99505.02;1735211;82;21071;-80
2022/08/04 11:11:40;;;;;;;8.83;5.67;;;;;;;26.79;63.10;99503.89;1734652;81;21142;-79
2022/08/04 11:14:22;;;;;;;8.25;5.70;;;;;;;26.90;62.80;99490.14;1734817;81;21788;-82
2022/08/04 11:17:01;;;;;;;8.43;5.58;;;;;;;27.02;61.90;99487.51;1734767;82;21056;-80
2022/08/04 11:19:48;;;;;;;6.37;5.37;;;;;;;27.13;61.33;99490.94;1735309;82;21032;-80
2022/08/04 11:22:20;;;;;;;9.25;5.58;;;;;;;27.30;62.23;99493.25;1734841;82;21123;-79
2022/08/04 11:25:21;;;;;;;9.83;5.28;;;;;;;27.39;61.30;99495.83;1733844;82;21113;-81
2022/08/04 11:28:08;;;;;;;12.35;5.55;;;;;;;27.41;60.67;99499.21;1734667;81;21059;-80
2022/08/04 11:30:58;;;;;;;5.50;5.03;;;;;;;27.40;60.90;99500.23;1721266;82;21546;-81
2022/08/04 11:33:36;;;;;;;7.10;5.35;;;;;;;27.32;60.38;99493.45;1734947;81;21060;-82
2022/08/04 11:36:11;;;;;;;8.73;5.10;;;;;;;27.15;60.12;99492.97;1711741;82;21032;-81
2022/08/04 11:39:10;;;;;;;9.25;5.50;;;;;;;27.01;60.73;99495.25;1733747;82;21547;-80
2022/08/04 11:42:23;;;;;;;6.30;5.20;;;;;;;26.95;62.09;99493.70;1724865;82;21170;-81
2022/08/04 11:45:05;;;;;;;6.58;5.50;;;;;;;26.89;61.63;99489.79;1724605;83;21522;-80
2022/08/04 11:48:00;;;;;;;11.33;4.97;;;;;;;26.86;63.19;99486.92;1724724;83;21082;-81
2022/08/04 11:50:40;;;;;;;7.33;5.20;;;;;;;26.85;63.23;99484.38;1725089;83;21007;-81
2022/08/04 11:53:14;;;;;;;7.10;5.53;;;;;;;26.84;63.12;99477.27;1724570;83;21511;-79
2022/08/04 11:55:40;;;;;;;7.80;5.75;;;;;;;26.92;63.22;99472.44;1724619;83;21997;-78
2022/08/04 11:58:07;;;;;;;8.65;5.53;;;;;;;27.04;63.82;99469.80;1724432;83;21614;-80
2022/08/04 12:00:33;;;;;;;5.70;5.30;;;;;;;27.21;63.82;99468.03;1724826;83;21138;-79
2022/08/04 12:03:40;;;;;;;6.08;5.42;;;;;;;27.35;62.98;99460.70;1724647;83;21131;-78
2022/08/04 12:06:33;;;;;;;6.95;5.40;;;;;;;27.44;62.31;99458.88;1727182;81;21122;-78
2022/08/04 12:09:10;;;;;;;16.55;5.58;;;;;;;27.49;61.68;99455.66;1739124;81;21051;-78
2022/08/04 12:11:51;;;;;;;6.53;5.67;;;;;;;27.50;61.33;99457.36;1740420;81;21082;-80
2022/08/04 12:14:33;;;;;;;6.50;5.42;;;;;;;27.48;61.34;99461.58;1729297;82;21193;-81
2022/08/04 12:17:01;;;;;;;12.45;5.75;;;;;;;27.50;61.43;99463.61;1720167;81;21593;-78
2022/08/04 12:19:50;;;;;;;5.03;4.40;;;;;;;27.59;62.01;99469.91;1727985;82;21824;-80
2022/08/04 12:22:25;;;;;;;4.85;4.33;;;;;;;27.66;61.13;99466.87;1729824;82;21067;-79
2022/08/04 12:24:53;;;;;;;;;;;;;;;27.70;60.40;99472.28;1730587;82;21110;-79
2022/08/04 12:27:23;;;;;;;5.42;4.62;;;;;;;27.72;59.47;99472.98;1730371;82;20168;-79
2022/08/04 12:29:50;;;;;;;5.03;4.62;;;;;;;27.69;59.67;99471.09;1730090;82;21141;-79
2022/08/04 12:32:27;;;;;;;7.05;5.17;;;;;;;27.73;59.87;99467.91;1737335;81;22209;-79